Time;durP1;ratioP1;P1;durP2;ratioP2;P2;SDS_P1;SDS_P2;PMS_P1;PMS_P2;Temp;Humidity;BMP_temperature;BMP_pressure;BME280_temperature;BME280_humidity;BME280_pressure;Samples;Min_cycle;Max_cycle;Signal;HPM_P1;HPM_P2
2021/11/21 00:00:10;;;;;;;51.63;25.95;;;9.50;56.00;;;;;;5011543;28;20905;-76
2021/11/21 00:02:36;;;;;;;51.65;27.50;;;9.40;57.50;;;;;;5011076;28;20440;-76
2021/11/21 00:05:01;;;;;;;52.45;27.15;;;9.40;58.70;;;;;;5014134;28;20475;-76
2021/11/21 00:07:27;;;;;;;54.40;27.83;;;9.30;58.90;;;;;;5015278;28;20435;-75
2021/11/21 00:09:53;;;;;;;47.43;27.13;;;9.30;59.30;;;;;;5014632;28;20392;-76
2021/11/21 00:12:19;;;;;;;51.47;27.00;;;9.40;58.50;;;;;;5014056;28;21008;-76
2021/11/21 00:14:44;;;;;;;55.30;28.27;;;9.40;58.40;;;;;;5015847;28;20479;-76
2021/11/21 00:17:11;;;;;;;54.67;28.45;;;9.30;58.70;;;;;;5022291;28;20424;-76
2021/11/21 00:19:39;;;;;;;53.50;28.92;;;9.30;60.80;;;;;;5024869;28;20396;-76
2021/11/21 00:22:05;;;;;;;53.55;28.13;;;9.20;62.40;;;;;;5019471;28;20420;-76
2021/11/21 00:24:31;;;;;;;55.63;30.07;;;9.10;65.20;;;;;;5008840;28;20819;-75
2021/11/21 00:26:56;;;;;;;59.03;30.60;;;9.00;67.40;;;;;;5014962;28;20397;-77
2021/11/21 00:29:22;;;;;;;59.58;31.35;;;9.00;70.30;;;;;;5017182;28;20412;-78
2021/11/21 00:31:48;;;;;;;53.67;30.10;;;9.00;70.30;;;;;;5016481;28;20400;-76
2021/11/21 00:34:13;;;;;;;57.53;30.20;;;9.00;70.50;;;;;;5017140;28;20473;-74
2021/11/21 00:36:39;;;;;;;62.20;30.63;;;9.10;69.30;;;;;;5014828;28;20419;-77
2021/11/21 00:39:05;;;;;;;62.35;32.10;;;9.20;69.50;;;;;;5014985;28;20408;-76
2021/11/21 00:41:31;;;;;;;53.70;29.23;;;9.10;70.50;;;;;;5015246;28;20391;-77
2021/11/21 00:43:56;;;;;;;57.37;31.27;;;9.10;70.10;;;;;;5014782;28;20754;-76
2021/11/21 00:46:23;;;;;;;53.67;30.07;;;9.00;72.20;;;;;;5014855;28;20401;-77
2021/11/21 00:48:49;;;;;;;63.33;31.40;;;9.00;73.30;;;;;;5013761;28;20416;-76
2021/11/21 00:51:17;;;;;;;63.92;31.02;;;8.90;75.70;;;;;;5013844;28;20836;-78
2021/11/21 00:53:44;;;;;;;57.37;31.53;;;8.90;75.00;;;;;;5014786;28;20517;-76
2021/11/21 00:56:10;;;;;;;68.35;32.67;;;8.90;75.00;;;;;;5015500;28;20475;-76
2021/11/21 00:58:36;;;;;;;62.97;32.28;;;8.90;75.00;;;;;;5015597;28;20435;-76
2021/11/21 01:01:05;;;;;;;60.53;32.65;;;8.90;74.90;;;;;;5011738;28;20434;-77
2021/11/21 01:03:31;;;;;;;60.97;32.53;;;8.80;75.00;;;;;;5013506;28;20389;-75
2021/11/21 01:05:58;;;;;;;65.43;32.95;;;8.80;74.70;;;;;;5013296;28;20884;-75
2021/11/21 01:08:23;;;;;;;67.85;34.88;;;8.80;76.90;;;;;;5014328;28;20419;-76
2021/11/21 01:10:52;;;;;;;68.25;34.05;;;8.80;77.50;;;;;;5016352;28;20762;-76
2021/11/21 01:13:19;;;;;;;74.47;36.90;;;8.80;78.50;;;;;;5012973;28;20393;-77
2021/11/21 01:15:45;;;;;;;72.43;36.20;;;8.80;77.50;;;;;;5012752;28;20422;-77
2021/11/21 01:18:11;;;;;;;71.90;35.53;;;8.80;77.60;;;;;;5013759;28;20408;-75
2021/11/21 01:20:40;;;;;;;71.32;35.35;;;8.80;75.50;;;;;;5013993;28;20397;-75
2021/11/21 01:23:07;;;;;;;68.95;33.65;;;8.70;76.10;;;;;;5013216;28;20752;-76
2021/11/21 01:25:33;;;;;;;65.50;33.78;;;8.70;75.80;;;;;;5013634;28;20400;-76
2021/11/21 01:27:59;;;;;;;66.50;34.35;;;8.80;76.90;;;;;;5013297;28;20463;-75
2021/11/21 01:30:27;;;;;;;75.95;36.83;;;8.80;76.70;;;;;;5013684;28;20464;-75
2021/11/21 01:32:54;;;;;;;69.65;35.60;;;8.70;77.50;;;;;;5013315;28;20873;-76
2021/11/21 01:35:19;;;;;;;63.92;34.08;;;8.80;77.50;;;;;;5013325;28;20385;-76
2021/11/21 01:37:45;;;;;;;68.68;34.33;;;8.90;74.50;;;;;;5013659;28;20407;-76
2021/11/21 01:40:14;;;;;;;65.68;35.03;;;9.00;73.20;;;;;;5012632;28;20407;-76
2021/11/21 01:42:40;;;;;;;70.00;35.00;;;9.00;72.40;;;;;;5014033;28;20384;-74
2021/11/21 01:45:07;;;;;;;70.95;33.80;;;8.90;74.00;;;;;;5012176;28;20886;-75
2021/11/21 01:47:39;;;;;;;73.03;34.83;;;8.90;74.50;;;;;;5012888;28;20416;-76
2021/11/21 01:50:11;;;;;;;62.60;32.88;;;8.80;76.20;;;;;;5013167;28;20397;-74
2021/11/21 01:52:37;;;;;;;69.38;32.85;;;8.80;77.10;;;;;;4995939;28;21930;-75
2021/11/21 01:55:04;;;;;;;68.87;33.93;;;8.70;79.60;;;;;;5012737;28;20460;-74
2021/11/21 01:57:30;;;;;;;68.40;33.22;;;8.80;79.20;;;;;;5013270;28;20392;-76
2021/11/21 01:59:59;;;;;;;65.80;32.53;;;8.70;80.00;;;;;;5012625;28;20534;-76
2021/11/21 02:02:25;;;;;;;62.13;32.28;;;8.80;80.20;;;;;;5012940;28;20427;-76
2021/11/21 02:04:51;;;;;;;67.23;33.00;;;8.70;81.10;;;;;;5012654;28;20901;-76
2021/11/21 02:07:17;;;;;;;62.73;31.00;;;8.70;81.60;;;;;;5013138;28;20412;-76
2021/11/21 02:09:42;;;;;;;65.60;32.90;;;8.70;81.20;;;;;;5013455;28;20420;-75
2021/11/21 02:12:08;;;;;;;62.20;32.73;;;8.60;83.10;;;;;;5012345;28;20455;-75
2021/11/21 02:14:33;;;;;;;60.67;30.90;;;8.70;81.90;;;;;;5013130;28;20376;-76
2021/11/21 02:16:59;;;;;;;63.47;32.22;;;8.60;82.40;;;;;;5012201;28;20754;-75
2021/11/21 02:19:25;;;;;;;61.92;31.08;;;8.60;83.50;;;;;;5028363;28;20401;-76
2021/11/21 02:21:50;;;;;;;62.60;31.73;;;8.60;83.30;;;;;;5012796;28;20814;-76
2021/11/21 02:24:16;;;;;;;67.00;32.35;;;8.60;85.30;;;;;;5013553;28;20719;-76
2021/11/21 02:26:42;;;;;;;66.50;33.33;;;8.60;86.00;;;;;;5013493;28;20397;-75
2021/11/21 02:29:09;;;;;;;68.95;32.95;;;8.60;86.20;;;;;;5014437;28;20890;-75
2021/11/21 02:31:35;;;;;;;65.53;32.83;;;8.60;85.40;;;;;;5013285;28;20739;-75
2021/11/21 02:34:01;;;;;;;60.50;30.65;;;8.60;85.70;;;;;;5014532;28;20569;-77
2021/11/21 02:36:26;;;;;;;60.40;31.10;;;8.70;82.60;;;;;;5015843;28;20471;-76
2021/11/21 02:38:52;;;;;;;64.87;32.70;;;8.60;83.50;;;;;;5023758;28;20401;-74
2021/11/21 02:41:18;;;;;;;62.73;31.50;;;8.60;83.60;;;;;;5033122;28;20403;-75
2021/11/21 02:43:45;;;;;;;63.07;30.73;;;8.60;84.10;;;;;;5033730;28;20423;-74
2021/11/21 02:46:11;;;;;;;66.70;31.45;;;8.60;82.20;;;;;;5030127;28;20397;-74
2021/11/21 02:48:37;;;;;;;57.75;29.80;;;8.70;79.10;;;;;;5027912;28;20416;-76
2021/11/21 02:51:06;;;;;;;59.60;30.30;;;8.70;80.50;;;;;;5013231;28;20408;-76
2021/11/21 02:53:34;;;;;;;60.72;30.20;;;8.70;81.00;;;;;;5014217;28;20381;-76
2021/11/21 02:56:03;;;;;;;61.92;31.17;;;8.70;81.70;;;;;;5014332;28;20593;-77
2021/11/21 02:58:32;;;;;;;56.80;29.42;;;8.70;81.60;;;;;;5012342;28;20408;-77
2021/11/21 03:00:58;;;;;;;59.80;30.25;;;8.70;80.50;;;;;;5012711;28;20494;-77
2021/11/21 03:03:24;;;;;;;58.55;29.63;;;8.70;79.90;;;;;;5013448;28;20385;-76
2021/11/21 03:05:49;;;;;;;61.50;30.47;;;8.70;80.80;;;;;;5029342;28;20488;-76
2021/11/21 03:08:15;;;;;;;60.60;29.80;;;8.70;82.50;;;;;;5012260;28;20421;-76
2021/11/21 03:10:41;;;;;;;55.15;28.33;;;8.70;80.70;;;;;;5012615;28;20420;-75
2021/11/21 03:13:08;;;;;;;56.75;28.25;;;8.70;80.10;;;;;;5026855;28;20971;-75
2021/11/21 03:15:34;;;;;;;57.33;27.70;;;8.70;82.90;;;;;;5012383;28;20464;-75
2021/11/21 03:18:01;;;;;;;55.95;28.20;;;8.70;80.10;;;;;;5012132;28;20424;-76
2021/11/21 03:20:30;;;;;;;53.77;27.70;;;8.80;78.40;;;;;;5012769;28;20455;-75
2021/11/21 03:22:57;;;;;;;53.55;27.23;;;8.80;79.80;;;;;;5010172;28;20384;-74
2021/11/21 03:25:23;;;;;;;54.75;26.30;;;8.70;81.60;;;;;;5014265;28;20404;-76
2021/11/21 03:27:49;;;;;;;56.55;27.77;;;8.70;81.50;;;;;;5013415;28;20431;-75
2021/11/21 03:30:18;;;;;;;55.95;27.48;;;8.70;82.20;;;;;;5010432;28;20963;-76
2021/11/21 03:32:45;;;;;;;48.87;26.03;;;8.70;81.20;;;;;;5009964;28;20388;-75
2021/11/21 03:35:10;;;;;;;54.15;27.80;;;8.80;81.20;;;;;;5012110;28;20431;-75
2021/11/21 03:37:37;;;;;;;52.85;26.95;;;8.80;79.50;;;;;;5011359;28;20898;-74
2021/11/21 03:40:06;;;;;;;55.92;27.90;;;8.80;80.60;;;;;;5011875;28;20389;-75
2021/11/21 03:42:31;;;;;;;52.38;27.25;;;8.70;79.90;;;;;;5011254;28;20976;-74
2021/11/21 03:44:57;;;;;;;55.47;27.60;;;8.70;80.40;;;;;;5009720;28;20440;-74
2021/11/21 03:47:22;;;;;;;55.15;26.65;;;8.80;80.30;;;;;;5010960;28;20483;-74
2021/11/21 03:49:48;;;;;;;54.20;27.83;;;8.80;79.80;;;;;;5011640;28;20483;-74
2021/11/21 03:52:14;;;;;;;52.22;26.48;;;8.70;80.00;;;;;;5011207;28;20456;-75
2021/11/21 03:54:39;;;;;;;55.33;27.85;;;8.80;80.40;;;;;;5011351;28;20391;-76
2021/11/21 03:57:06;;;;;;;51.40;26.77;;;8.80;80.30;;;;;;5010535;28;20385;-75
2021/11/21 03:59:31;;;;;;;53.72;26.42;;;8.80;80.10;;;;;;5010710;28;20427;-76
2021/11/21 04:01:59;;;;;;;55.03;27.77;;;8.80;81.50;;;;;;5011268;28;20385;-74
2021/11/21 04:04:28;;;;;;;52.83;25.90;;;8.80;81.20;;;;;;5009719;28;20423;-75
2021/11/21 04:06:54;;;;;;;56.63;26.95;;;8.80;80.10;;;;;;5010319;28;20393;-74
2021/11/21 04:09:20;;;;;;;57.08;27.40;;;8.80;82.00;;;;;;5010545;28;20909;-74
2021/11/21 04:11:46;;;;;;;51.75;25.90;;;8.80;82.60;;;;;;5010899;28;20393;-74
2021/11/21 04:14:12;;;;;;;51.80;25.65;;;8.80;82.70;;;;;;5011062;28;20423;-75
2021/11/21 04:16:38;;;;;;;49.53;24.67;;;8.70;83.50;;;;;;5025649;28;20381;-75
2021/11/21 04:19:04;;;;;;;50.80;26.05;;;8.70;83.30;;;;;;5010398;28;20480;-75
2021/11/21 04:21:31;;;;;;;50.90;25.30;;;8.70;83.90;;;;;;5010394;28;20419;-77
2021/11/21 04:23:57;;;;;;;51.90;25.20;;;8.60;87.00;;;;;;5010772;28;20393;-75
2021/11/21 04:26:22;;;;;;;52.10;24.50;;;8.70;85.80;;;;;;5010727;28;20397;-76
2021/11/21 04:28:48;;;;;;;47.95;24.40;;;8.70;86.10;;;;;;5012664;28;20509;-76
2021/11/21 04:31:14;;;;;;;47.38;23.30;;;8.70;86.60;;;;;;5023294;28;20388;-73
2021/11/21 04:33:40;;;;;;;49.80;23.80;;;8.70;86.40;;;;;;5011898;28;21012;-75
2021/11/21 04:36:05;;;;;;;48.90;25.00;;;8.70;86.20;;;;;;5010394;28;20405;-75
2021/11/21 04:38:31;;;;;;;50.03;23.03;;;8.70;86.10;;;;;;5011280;28;20827;-74
2021/11/21 04:40:57;;;;;;;50.72;24.60;;;8.60;85.40;;;;;;5010520;28;20401;-76
2021/11/21 04:43:22;;;;;;;49.33;23.80;;;8.60;86.10;;;;;;5010665;28;20385;-74
2021/11/21 04:45:49;;;;;;;49.13;23.58;;;8.60;83.90;;;;;;5010424;28;20380;-75
2021/11/21 04:48:15;;;;;;;48.53;24.52;;;8.60;86.80;;;;;;5009288;28;20463;-76
2021/11/21 04:50:42;;;;;;;46.50;23.77;;;8.60;85.20;;;;;;5010609;28;20467;-76
2021/11/21 04:53:08;;;;;;;47.35;23.90;;;8.60;86.10;;;;;;5013667;28;20397;-75
2021/11/21 04:55:34;;;;;;;45.47;23.27;;;8.60;87.70;;;;;;5013154;28;20789;-75
2021/11/21 04:58:00;;;;;;;45.45;22.30;;;8.70;85.10;;;;;;5013538;28;20400;-75
2021/11/21 05:00:25;;;;;;;44.03;22.15;;;8.70;83.90;;;;;;5013799;28;20396;-75
2021/11/21 05:02:51;;;;;;;43.70;21.98;;;8.70;83.00;;;;;;5013948;28;20421;-74
2021/11/21 05:05:19;;;;;;;44.05;21.80;;;8.70;82.00;;;;;;5013686;28;20484;-75
2021/11/21 05:07:45;;;;;;;46.05;23.25;;;8.70;82.20;;;;;;5009491;28;20405;-74
2021/11/21 05:10:12;;;;;;;48.85;22.80;;;8.70;83.40;;;;;;5012341;28;20388;-74
2021/11/21 05:12:39;;;;;;;45.45;23.08;;;8.70;82.40;;;;;;5013699;28;20763;-73
2021/11/21 05:15:07;;;;;;;46.72;23.20;;;8.70;82.20;;;;;;5013699;28;20385;-74
2021/11/21 05:17:33;;;;;;;47.97;23.65;;;8.80;81.90;;;;;;5013765;28;20405;-74
2021/11/21 05:19:59;;;;;;;47.80;24.97;;;8.70;85.20;;;;;;5014526;28;20385;-75
2021/11/21 05:22:27;;;;;;;52.03;25.02;;;8.70;83.50;;;;;;5014169;28;20446;-73
2021/11/21 05:24:53;;;;;;;47.38;24.20;;;8.70;82.70;;;;;;5013451;28;20415;-74
2021/11/21 05:27:20;;;;;;;49.83;23.95;;;8.80;81.90;;;;;;5013078;28;20401;-74
2021/11/21 05:29:46;;;;;;;47.92;24.20;;;8.80;80.50;;;;;;5013574;28;20389;-74
2021/11/21 05:32:11;;;;;;;46.80;23.35;;;8.80;81.00;;;;;;5014785;28;20392;-74
2021/11/21 05:34:37;;;;;;;48.03;23.70;;;8.80;78.90;;;;;;5014275;28;20888;-73
2021/11/21 05:37:04;;;;;;;45.27;23.20;;;8.80;80.30;;;;;;5013380;28;20396;-76
2021/11/21 05:39:29;;;;;;;49.45;24.48;;;8.70;82.00;;;;;;5013388;28;20901;-75
2021/11/21 05:41:55;;;;;;;49.15;25.30;;;8.80;82.40;;;;;;5013515;28;20425;-75
2021/11/21 05:44:21;;;;;;;52.40;24.48;;;8.80;80.40;;;;;;5015235;28;20755;-73
2021/11/21 05:46:46;;;;;;;50.28;25.45;;;8.90;78.50;;;;;;5012599;28;20397;-75
2021/11/21 05:49:12;;;;;;;50.33;24.30;;;8.80;79.30;;;;;;5013233;28;20542;-74
2021/11/21 05:51:38;;;;;;;51.70;26.05;;;8.70;81.20;;;;;;5013074;28;20519;-73
2021/11/21 05:54:04;;;;;;;50.50;24.52;;;8.80;81.80;;;;;;5013684;28;20677;-76
2021/11/21 05:56:29;;;;;;;46.67;23.07;;;8.90;79.50;;;;;;5012791;28;20407;-74
2021/11/21 05:58:55;;;;;;;48.60;24.33;;;8.80;79.90;;;;;;5020466;28;20404;-75
2021/11/21 06:01:21;;;;;;;43.55;22.95;;;8.80;81.00;;;;;;5030740;28;20519;-76
2021/11/21 06:03:50;;;;;;;49.50;23.77;;;8.80;83.90;;;;;;5027559;28;20396;-77
2021/11/21 06:06:16;;;;;;;46.00;23.13;;;8.90;80.00;;;;;;5019249;28;20488;-74
2021/11/21 06:08:41;;;;;;;51.88;23.95;;;8.80;80.60;;;;;;5014747;28;20503;-75
2021/11/21 06:11:07;;;;;;;50.15;23.90;;;8.90;79.60;;;;;;5013123;28;20466;-75
2021/11/21 06:13:33;;;;;;;49.35;24.73;;;8.80;80.40;;;;;;5012877;28;20392;-75
2021/11/21 06:15:58;;;;;;;48.50;23.92;;;8.80;81.50;;;;;;5012923;28;20463;-77
2021/11/21 06:18:24;;;;;;;47.22;24.85;;;8.80;80.50;;;;;;5012239;28;20396;-75
2021/11/21 06:20:50;;;;;;;48.92;24.95;;;8.80;80.50;;;;;;5012663;28;20389;-75
2021/11/21 06:23:15;;;;;;;47.85;24.00;;;8.80;81.20;;;;;;5012550;28;20396;-76
2021/11/21 06:25:44;;;;;;;45.30;24.35;;;8.90;80.60;;;;;;5012487;28;20425;-75
2021/11/21 06:28:11;;;;;;;48.10;25.10;;;8.90;80.00;;;;;;5012618;28;20404;-75
2021/11/21 06:30:37;;;;;;;48.90;24.88;;;8.90;80.40;;;;;;5012868;28;20870;-76
2021/11/21 06:33:03;;;;;;;50.90;24.63;;;8.90;79.00;;;;;;5012519;28;20409;-77
2021/11/21 06:35:30;;;;;;;49.25;24.70;;;8.90;81.10;;;;;;5013081;28;20423;-77
2021/11/21 06:37:57;;;;;;;52.03;25.77;;;8.90;79.30;;;;;;5012003;28;20500;-76
2021/11/21 06:40:22;;;;;;;54.65;25.17;;;8.90;80.40;;;;;;5012616;28;20393;-75
2021/11/21 06:42:48;;;;;;;51.83;23.80;;;8.90;80.90;;;;;;5012125;28;20455;-75
2021/11/21 06:45:14;;;;;;;51.75;25.90;;;8.90;79.50;;;;;;5013048;28;20890;-75
2021/11/21 06:47:40;;;;;;;51.45;24.88;;;8.80;80.70;;;;;;5012248;28;20616;-77
2021/11/21 06:50:10;;;;;;;49.05;24.88;;;8.90;81.10;;;;;;5012078;28;20866;-77
2021/11/21 06:52:36;;;;;;;48.70;25.20;;;8.90;79.90;;;;;;5011274;28;20486;-74
2021/11/21 06:55:05;;;;;;;51.90;25.13;;;9.00;78.20;;;;;;5011142;28;20962;-74
2021/11/21 06:57:33;;;;;;;52.13;25.48;;;9.00;76.90;;;;;;5011444;28;20396;-75
2021/11/21 06:59:58;;;;;;;49.55;25.58;;;8.90;79.40;;;;;;5011808;28;20464;-74
2021/11/21 07:02:24;;;;;;;49.33;24.47;;;8.90;79.00;;;;;;5004141;28;20542;-76
2021/11/21 07:04:50;;;;;;;50.67;25.60;;;8.90;80.20;;;;;;5011667;28;20487;-75
2021/11/21 07:07:16;;;;;;;51.53;25.95;;;8.90;80.20;;;;;;5011288;28;20520;-74
2021/11/21 07:09:44;;;;;;;54.88;26.50;;;8.90;81.30;;;;;;5010903;28;20396;-75
2021/11/21 07:12:11;;;;;;;44.70;24.00;;;8.90;81.20;;;;;;5010632;28;20407;-75
2021/11/21 07:14:36;;;;;;;54.97;25.70;;;9.20;79.80;;;;;;5011285;28;20392;-74
2021/11/21 07:17:03;;;;;;;48.15;24.35;;;9.10;78.60;;;;;;5011138;28;20400;-76
2021/11/21 07:19:28;;;;;;;49.15;24.90;;;9.10;78.00;;;;;;5012839;28;20901;-75
2021/11/21 07:21:54;;;;;;;46.10;22.95;;;9.10;79.10;;;;;;5013149;28;20380;-76
2021/11/21 07:24:20;;;;;;;51.47;24.15;;;9.00;77.60;;;;;;5013661;28;20381;-75
2021/11/21 07:26:45;;;;;;;49.37;24.90;;;9.00;78.90;;;;;;5012104;28;20424;-75
2021/11/21 07:29:11;;;;;;;46.23;24.07;;;8.90;81.70;;;;;;5011179;28;20850;-76
2021/11/21 07:31:37;;;;;;;48.60;24.10;;;8.80;84.20;;;;;;5011562;28;20388;-76
2021/11/21 07:34:03;;;;;;;46.63;24.00;;;8.80;85.60;;;;;;5011667;28;20392;-75
2021/11/21 07:36:29;;;;;;;53.42;25.35;;;8.80;87.30;;;;;;5010758;28;20385;-74
2021/11/21 07:38:55;;;;;;;50.63;24.70;;;8.70;87.90;;;;;;5011129;28;20392;-76
2021/11/21 07:41:20;;;;;;;51.53;25.23;;;8.70;90.00;;;;;;5011605;28;20404;-75
2021/11/21 07:43:46;;;;;;;46.53;23.58;;;8.80;88.50;;;;;;5009701;28;20415;-75
2021/11/21 07:46:12;;;;;;;45.92;22.75;;;8.70;90.40;;;;;;5011366;28;20393;-75
2021/11/21 07:48:38;;;;;;;45.93;22.30;;;8.70;90.40;;;;;;5011313;28;21021;-76
2021/11/21 07:51:04;;;;;;;44.08;22.20;;;8.70;89.70;;;;;;5011107;28;20402;-76
2021/11/21 07:53:30;;;;;;;41.60;21.37;;;8.80;88.80;;;;;;5011639;28;20395;-75
2021/11/21 07:55:56;;;;;;;40.97;21.80;;;8.80;88.10;;;;;;5011595;28;20385;-77
2021/11/21 07:58:22;;;;;;;40.72;21.20;;;8.80;89.40;;;;;;5008771;28;20484;-77
2021/11/21 08:00:49;;;;;;;41.83;21.23;;;8.80;88.80;;;;;;5012624;28;20440;-75
2021/11/21 08:03:14;;;;;;;37.80;19.77;;;8.90;89.90;;;;;;5010203;28;20479;-76
2021/11/21 08:05:40;;;;;;;41.17;20.53;;;8.80;89.10;;;;;;5011802;28;20424;-76
2021/11/21 08:08:06;;;;;;;38.70;19.52;;;8.80;90.30;;;;;;5010725;28;20412;-77
2021/11/21 08:10:33;;;;;;;40.17;20.17;;;8.80;91.30;;;;;;5011283;28;20480;-75
2021/11/21 08:12:59;;;;;;;38.05;18.80;;;8.80;90.90;;;;;;5011246;28;20449;-79
2021/11/21 08:15:25;;;;;;;35.67;17.85;;;8.90;87.30;;;;;;5009179;28;20396;-77
2021/11/21 08:17:50;;;;;;;33.50;16.80;;;8.90;87.50;;;;;;5010792;28;20456;-77
2021/11/21 08:20:16;;;;;;;30.30;16.00;;;8.90;87.90;;;;;;5010824;28;20400;-77
2021/11/21 08:22:42;;;;;;;27.77;15.50;;;8.90;86.70;;;;;;5011139;28;20389;-75
2021/11/21 08:25:09;;;;;;;29.75;16.17;;;9.00;83.60;;;;;;5012510;28;20404;-77
2021/11/21 08:27:35;;;;;;;28.30;14.43;;;9.00;83.90;;;;;;5018964;28;20959;-77
2021/11/21 08:30:00;;;;;;;30.33;15.68;;;8.90;85.40;;;;;;5020933;28;20393;-75
2021/11/21 08:32:26;;;;;;;28.00;15.17;;;8.90;87.00;;;;;;5017006;28;20844;-77
2021/11/21 08:34:52;;;;;;;30.10;14.55;;;9.00;85.00;;;;;;5022566;28;20758;-77
2021/11/21 08:37:17;;;;;;;27.05;13.82;;;9.00;84.60;;;;;;5015820;28;20404;-78
2021/11/21 08:39:43;;;;;;;30.35;15.32;;;9.00;82.10;;;;;;5015470;28;20749;-76
2021/11/21 08:42:09;;;;;;;27.80;15.13;;;9.10;82.20;;;;;;5021240;28;20401;-77
2021/11/21 08:44:35;;;;;;;26.70;13.90;;;9.20;81.00;;;;;;5013647;28;20408;-76
2021/11/21 08:47:01;;;;;;;24.95;13.80;;;9.20;80.50;;;;;;5015965;28;20743;-74
2021/11/21 08:49:26;;;;;;;26.95;14.00;;;9.30;81.20;;;;;;5014280;28;20443;-73
2021/11/21 08:51:52;;;;;;;29.40;14.60;;;9.30;79.40;;;;;;5011230;28;20408;-77
2021/11/21 08:54:19;;;;;;;27.35;13.82;;;9.30;80.20;;;;;;5013197;28;20754;-75
2021/11/21 08:56:46;;;;;;;26.07;13.93;;;9.30;81.60;;;;;;5013014;28;20459;-73
2021/11/21 08:59:12;;;;;;;29.42;14.88;;;9.30;81.60;;;;;;5013394;28;20397;-73
2021/11/21 09:01:37;;;;;;;23.35;12.65;;;9.30;82.00;;;;;;5015404;28;20458;-72
2021/11/21 09:04:03;;;;;;;28.95;14.20;;;9.40;79.40;;;;;;5017355;28;20404;-74
2021/11/21 09:06:29;;;;;;;23.23;12.93;;;9.40;79.00;;;;;;5020324;28;20390;-74
2021/11/21 09:08:55;;;;;;;25.27;14.10;;;9.40;78.50;;;;;;5018348;28;20945;-74
2021/11/21 09:11:21;;;;;;;26.88;13.95;;;9.50;77.50;;;;;;5015221;28;20407;-73
2021/11/21 09:13:47;;;;;;;25.67;14.60;;;9.50;78.10;;;;;;5014616;28;20389;-72
2021/11/21 09:16:12;;;;;;;24.67;14.37;;;9.60;77.70;;;;;;5012985;28;20401;-73
2021/11/21 09:18:38;;;;;;;24.50;14.20;;;9.60;78.00;;;;;;5017111;28;20480;-72
2021/11/21 09:21:04;;;;;;;27.17;13.90;;;9.70;77.00;;;;;;5017214;28;20737;-75
2021/11/21 09:23:30;;;;;;;29.67;15.10;;;9.90;72.30;;;;;;5038096;28;20407;-73
2021/11/21 09:25:56;;;;;;;27.63;14.30;;;10.10;71.30;;;;;;5020736;28;20419;-73
2021/11/21 09:28:24;;;;;;;25.47;14.37;;;10.10;72.00;;;;;;5013885;28;20412;-73
2021/11/21 09:30:54;;;;;;;25.85;13.73;;;10.20;70.50;;;;;;5016629;28;20439;-73
2021/11/21 09:33:20;;;;;;;28.65;14.98;;;10.00;71.60;;;;;;5015612;28;20393;-73
2021/11/21 09:35:47;;;;;;;26.70;14.50;;;9.90;74.00;;;;;;5020910;28;20415;-73
2021/11/21 09:38:14;;;;;;;28.63;14.93;;;10.00;72.20;;;;;;5030279;28;20400;-70
2021/11/21 09:40:39;;;;;;;30.42;14.70;;;10.00;72.80;;;;;;5031863;28;20645;-71
2021/11/21 09:43:05;;;;;;;37.33;17.73;;;10.10;72.20;;;;;;5030427;28;20409;-72
2021/11/21 09:45:31;;;;;;;31.02;16.42;;;10.10;71.80;;;;;;5027195;28;20409;-73
2021/11/21 09:48:00;;;;;;;30.40;15.40;;;10.10;73.00;;;;;;5023192;28;20482;-73
2021/11/21 09:50:28;;;;;;;27.35;13.82;;;10.00;73.70;;;;;;5022031;28;20385;-73
2021/11/21 09:52:54;;;;;;;30.00;14.82;;;10.00;73.40;;;;;;5024265;28;20404;-75
2021/11/21 09:55:20;;;;;;;27.50;15.00;;;10.00;74.10;;;;;;5013533;28;20874;-74
2021/11/21 09:57:46;;;;;;;30.50;15.50;;;10.00;75.70;;;;;;5008230;28;20395;-73
2021/11/21 10:00:17;;;;;;;34.10;17.70;;;9.90;77.40;;;;;;5011729;28;20819;-73
2021/11/21 10:02:56;;;;;;;33.05;16.25;;;10.00;80.50;;;;;;5010093;28;20389;-73
2021/11/21 10:05:27;;;;;;;31.67;15.55;;;10.20;74.90;;;;;;5014108;28;20805;-73
2021/11/21 10:08:16;;;;;;;30.05;16.25;;;10.20;70.70;;;;;;5011498;28;20482;-73
2021/11/21 10:10:46;;;;;;;32.58;16.02;;;10.20;72.40;;;;;;5011628;28;20381;-72
2021/11/21 10:13:44;;;;;;;29.13;15.27;;;10.30;72.30;;;;;;5017290;28;20401;-72
2021/11/21 10:16:18;;;;;;;29.05;14.73;;;10.30;70.70;;;;;;5007038;28;20420;-73
2021/11/21 10:18:59;;;;;;;31.60;16.63;;;10.30;71.30;;;;;;5012891;28;20487;-73
2021/11/21 10:21:31;;;;;;;30.42;15.98;;;10.40;71.90;;;;;;5013433;28;20401;-73
2021/11/21 10:24:15;;;;;;;30.77;16.15;;;10.40;69.80;;;;;;5021704;28;20412;-72
2021/11/21 10:26:41;;;;;;;35.03;17.20;;;10.50;70.00;;;;;;5020515;28;20420;-73
2021/11/21 10:29:28;;;;;;;32.27;16.50;;;10.40;69.80;;;;;;5019746;28;21197;-73
2021/11/21 10:31:53;;;;;;;37.47;17.35;;;10.40;71.60;;;;;;5006448;28;20424;-73
2021/11/21 10:34:19;;;;;;;33.63;16.10;;;10.20;72.60;;;;;;5006958;28;20393;-75
2021/11/21 10:36:45;;;;;;;35.83;17.83;;;10.10;73.80;;;;;;5011488;28;20407;-74
2021/11/21 10:39:12;;;;;;;37.45;19.23;;;10.00;77.60;;;;;;5010962;28;20939;-73
2021/11/21 10:41:41;;;;;;;35.40;18.67;;;10.00;78.60;;;;;;5015450;28;20404;-74
2021/11/21 10:44:12;;;;;;;40.10;20.00;;;10.00;79.40;;;;;;5012159;28;20810;-73
2021/11/21 10:46:45;;;;;;;38.92;19.00;;;10.00;79.70;;;;;;5008740;28;20493;-74
2021/11/21 10:49:35;;;;;;;38.60;19.60;;;10.00;81.20;;;;;;4998566;28;20493;-73
2021/11/21 10:52:04;;;;;;;40.25;18.95;;;10.00;82.00;;;;;;5008463;28;20414;-73
2021/11/21 10:54:39;;;;;;;38.95;19.20;;;10.00;81.60;;;;;;5012326;28;20400;-74
2021/11/21 10:57:07;;;;;;;40.75;20.20;;;10.00;82.30;;;;;;5006242;28;20385;-73
2021/11/21 10:59:41;;;;;;;39.70;20.10;;;10.10;83.00;;;;;;5011161;28;20823;-73
2021/11/21 11:02:10;;;;;;;27.67;11.02;;;10.20;81.50;;;;;;5012152;28;20914;-73
2021/11/21 11:04:36;;;;;;;33.08;15.93;;;9.90;66.30;;;;;;5013367;28;20898;-75
2021/11/21 11:07:17;;;;;;;31.48;15.32;;;9.90;76.80;;;;;;5013376;28;20440;-75
2021/11/21 11:09:44;;;;;;;30.92;14.45;;;9.80;79.20;;;;;;5005869;28;20413;-73
2021/11/21 11:12:10;;;;;;;22.25;8.40;;;9.90;75.60;;;;;;5010784;28;20593;-73
2021/11/21 11:14:36;;;;;;;21.58;9.40;;;9.80;60.60;;;;;;5011745;28;20405;-74
2021/11/21 11:17:03;;;;;;;22.40;11.30;;;9.80;62.20;;;;;;5004040;28;20402;-74
2021/11/21 11:19:29;;;;;;;31.88;12.70;;;9.70;60.90;;;;;;5011209;28;20825;-73
2021/11/21 11:21:55;;;;;;;26.83;13.10;;;9.80;61.20;;;;;;5010072;28;20424;-72
2021/11/21 11:24:22;;;;;;;32.05;13.52;;;9.90;62.30;;;;;;5011653;28;20878;-73
2021/11/21 11:27:15;;;;;;;26.57;13.70;;;10.00;60.90;;;;;;5007347;28;20629;-77
2021/11/21 11:29:50;;;;;;;33.78;14.00;;;10.10;61.80;;;;;;5007526;28;20445;-77
2021/11/21 11:32:37;;;;;;;28.95;13.27;;;10.10;64.20;;;;;;5009017;28;20930;-77
2021/11/21 11:35:19;;;;;;;30.65;13.63;;;10.10;63.40;;;;;;5004566;28;20897;-79
2021/11/21 11:37:53;;;;;;;36.83;14.13;;;10.10;64.90;;;;;;5011842;28;20396;-75
2021/11/21 11:40:28;;;;;;;30.05;13.45;;;10.20;64.60;;;;;;5014034;28;20392;-75
2021/11/21 11:43:15;;;;;;;31.15;14.50;;;10.30;64.20;;;;;;5015195;28;20385;-76
2021/11/21 11:45:44;;;;;;;36.95;14.30;;;10.20;67.20;;;;;;5013899;28;20391;-75
2021/11/21 11:48:28;;;;;;;30.95;14.82;;;10.40;68.10;;;;;;5015741;28;20508;-76
2021/11/21 11:50:54;;;;;;;31.52;15.25;;;10.20;70.10;;;;;;5014047;28;20455;-76
2021/11/21 11:53:46;;;;;;;34.97;15.60;;;10.10;73.80;;;;;;5016371;28;20404;-77
2021/11/21 11:56:15;;;;;;;33.83;15.35;;;10.00;77.20;;;;;;5012044;28;20400;-76
2021/11/21 11:59:03;;;;;;;30.13;12.90;;;10.30;71.60;;;;;;5011858;28;20408;-76
2021/11/21 12:01:32;;;;;;;25.95;12.10;;;10.50;67.40;;;;;;5006234;28;20851;-76
2021/11/21 12:03:59;;;;;;;30.23;12.70;;;10.80;64.10;;;;;;5014623;28;20395;-77
2021/11/21 12:06:48;;;;;;;25.55;11.82;;;10.70;63.10;;;;;;5000285;28;20421;-77
2021/11/21 12:09:19;;;;;;;31.73;13.27;;;10.80;63.80;;;;;;5013744;28;20413;-75
2021/11/21 12:12:08;;;;;;;28.20;12.40;;;10.80;66.30;;;;;;5030814;28;20397;-75
2021/11/21 12:14:37;;;;;;;35.28;13.20;;;10.90;62.40;;;;;;5005527;28;20385;-75
2021/11/21 12:17:06;;;;;;;29.02;12.48;;;11.00;62.90;;;;;;5015682;28;20398;-77
2021/11/21 12:19:52;;;;;;;28.47;11.90;;;11.10;62.00;;;;;;5008936;28;20516;-76
2021/11/21 12:22:27;;;;;;;25.92;11.32;;;11.10;61.00;;;;;;5017588;28;20404;-74
2021/11/21 12:24:54;;;;;;;30.00;11.60;;;11.20;60.50;;;;;;5029874;28;20392;-74
2021/11/21 12:27:25;;;;;;;25.87;11.67;;;11.20;62.00;;;;;;5013544;28;20408;-73
2021/11/21 12:30:09;;;;;;;21.52;10.60;;;11.40;59.00;;;;;;5012919;28;20400;-74
2021/11/21 12:32:57;;;;;;;25.83;11.82;;;11.50;58.70;;;;;;4994531;28;20394;-72
2021/11/21 12:35:30;;;;;;;24.90;11.60;;;11.50;59.40;;;;;;5015451;28;20805;-73
2021/11/21 12:38:33;;;;;;;20.50;9.30;;;11.70;58.60;;;;;;5019704;28;20392;-73